Time;durP1;ratioP1;P1;durP2;ratioP2;P2;SDS_P1;SDS_P2;PMS_P1;PMS_P2;Temp;Humidity;BMP_temperature;BMP_pressure;BME280_temperature;BME280_humidity;BME280_pressure;Samples;Min_cycle;Max_cycle;Signal;HPM_P1;HPM_P2
2022/07/07 00:01:08;;;;;;;5.40;4.75;;;;;;;20.94;56.44;95219.03;5074457;28;20046;-87
2022/07/07 00:03:33;;;;;;;5.95;4.47;;;;;;;20.26;56.84;95136.03;5065475;28;20028;-87
2022/07/07 00:05:59;;;;;;;13.23;4.40;;;;;;;20.92;57.13;95249.03;5056306;28;20059;-87
2022/07/07 00:08:25;;;;;;;5.05;4.55;;;;;;;20.55;57.22;95202.41;5076465;28;20036;-87
2022/07/07 00:10:50;;;;;;;7.40;5.03;;;;;;;20.86;57.60;95246.88;5063693;28;20546;-87
2022/07/07 00:13:16;;;;;;;5.53;4.80;;;;;;;19.80;57.79;95098.72;5064845;28;20562;-87
2022/07/07 00:15:45;;;;;;;7.15;4.75;;;;;;;20.82;57.84;95254.09;5064140;28;20058;-87
2022/07/07 00:18:13;;;;;;;5.53;5.00;;;;;;;20.64;57.54;95221.94;5062661;28;20060;-87
2022/07/07 00:20:39;;;;;;;5.65;4.95;;;;;;;20.60;58.14;95234.50;5061788;28;20270;-87
2022/07/07 00:23:04;;;;;;;7.05;4.47;;;;;;;20.42;58.15;95203.53;5078843;28;20036;-87
2022/07/07 00:25:30;;;;;;;11.60;4.80;;;;;;;20.38;57.98;95197.22;5082681;28;20095;-88
2022/07/07 00:27:55;;;;;;;7.20;4.95;;;;;;;20.77;58.01;95263.94;5064064;28;20479;-87
2022/07/07 00:30:21;;;;;;;7.03;5.15;;;;;;;20.63;57.85;95219.59;5063275;28;20024;-87
2022/07/07 00:32:46;;;;;;;6.38;5.38;;;;;;;20.38;57.87;95194.53;5070994;28;21002;-87
2022/07/07 00:35:12;;;;;;;7.63;4.50;;;;;;;20.68;57.23;95225.53;5061229;28;20062;-87
2022/07/07 00:37:37;;;;;;;4.63;3.97;;;;;;;20.12;57.47;95140.97;5078113;28;20036;-87
2022/07/07 00:40:04;;;;;;;7.38;5.03;;;;;;;20.72;56.96;95212.97;5063397;28;20059;-87
2022/07/07 00:42:29;;;;;;;5.57;4.90;;;;;;;20.63;56.87;95198.81;5076281;28;20055;-88
2022/07/07 00:44:55;;;;;;;8.45;5.10;;;;;;;20.23;57.30;95165.53;5055266;28;20040;-87
2022/07/07 00:47:21;;;;;;;8.38;4.65;;;;;;;20.98;57.00;95263.09;5062699;28;20031;-87
2022/07/07 00:49:46;;;;;;;5.95;4.72;;;;;;;20.42;57.19;95196.22;5063232;28;20059;-87
2022/07/07 00:52:13;;;;;;;5.03;4.63;;;;;;;20.69;57.04;95215.53;5062468;28;20036;-87
2022/07/07 00:54:38;;;;;;;8.43;4.53;;;;;;;19.30;57.03;95018.97;5071612;28;20097;-87
2022/07/07 00:57:05;;;;;;;5.88;4.47;;;;;;;20.82;57.00;95251.41;5074991;28;20031;-87
2022/07/07 00:59:34;;;;;;;5.63;4.38;;;;;;;20.70;56.58;95220.59;5069730;28;20470;-87
2022/07/07 01:02:01;;;;;;;6.60;4.50;;;;;;;20.92;56.37;95248.22;5062468;28;20028;-87
2022/07/07 01:04:27;;;;;;;10.20;4.40;;;;;;;20.50;57.04;95216.09;5073679;28;20472;-88
2022/07/07 01:06:52;;;;;;;5.68;4.63;;;;;;;20.69;57.08;95264.84;5069754;28;20047;-88
2022/07/07 01:09:19;;;;;;;6.75;4.50;;;;;;;20.28;57.45;95221.88;5072848;28;20031;-87
2022/07/07 01:11:54;;;;;;;4.30;3.90;;;;;;;20.34;57.90;95234.81;5063395;28;20264;-87
2022/07/07 01:14:20;;;;;;;5.82;4.40;;;;;;;19.81;58.01;95171.06;5062982;28;20088;-87
2022/07/07 01:16:47;;;;;;;4.63;4.13;;;;;;;20.23;57.90;95243.63;5059713;28;20047;-87
2022/07/07 01:19:13;;;;;;;4.88;4.03;;;;;;;19.94;57.28;95178.03;5070022;28;20028;-87
2022/07/07 01:21:55;;;;;;;7.28;4.20;;;;;;;19.63;56.99;95113.91;5059161;28;20071;-88
2022/07/07 01:24:26;;;;;;;7.88;3.97;;;;;;;20.57;57.04;95266.75;5052818;28;20118;-87
2022/07/07 01:27:04;;;;;;;;;;;;;;;20.41;57.36;95264.69;5062757;28;20549;-86
2022/07/07 01:29:33;;;;;;;5.10;4.15;;;;;;;20.19;57.61;95259.66;5072276;28;20016;-86
2022/07/07 01:31:59;;;;;;;4.97;3.65;;;;;;;19.23;58.26;95121.69;5080511;28;20130;-86
2022/07/07 01:34:24;;;;;;;7.32;4.03;;;;;;;19.58;58.09;95159.88;5080941;28;20143;-86
2022/07/07 01:36:50;;;;;;;5.50;3.97;;;;;;;19.23;57.90;95126.28;5062037;28;20032;-86
2022/07/07 01:39:15;;;;;;;5.18;4.15;;;;;;;20.15;58.35;95258.72;5050543;28;20044;-86
2022/07/07 01:41:40;;;;;;;8.52;4.40;;;;;;;19.94;58.11;95233.75;5072743;28;20112;-86
2022/07/07 01:44:06;;;;;;;6.10;4.13;;;;;;;19.46;59.05;95202.00;5057967;28;20036;-87
2022/07/07 01:46:31;;;;;;;5.38;4.45;;;;;;;19.16;59.01;95171.72;5059687;28;20075;-86
2022/07/07 01:48:57;;;;;;;8.15;3.80;;;;;;;19.50;59.56;95232.56;5065410;28;20085;-86
2022/07/07 01:51:22;;;;;;;6.50;4.40;;;;;;;19.26;59.36;95177.50;5059522;28;20457;-86
2022/07/07 01:53:48;;;;;;;4.82;3.53;;;;;;;18.82;59.10;95114.44;5061455;28;20051;-86
2022/07/07 01:56:13;;;;;;;7.07;4.47;;;;;;;19.74;59.03;95253.44;5071748;28;20490;-86
2022/07/07 01:58:39;;;;;;;5.43;3.88;;;;;;;19.59;58.75;95234.06;5061157;28;20576;-86
2022/07/07 02:01:04;;;;;;;5.93;4.15;;;;;;;19.67;58.83;95231.66;5058668;28;20047;-86
2022/07/07 02:03:30;;;;;;;5.57;4.00;;;;;;;19.67;58.55;95232.44;5064923;28;20044;-86
2022/07/07 02:05:55;;;;;;;9.40;3.70;;;;;;;19.08;58.71;95157.22;5062848;28;20039;-86
2022/07/07 02:08:21;;;;;;;5.72;3.55;;;;;;;19.33;58.94;95221.91;5068929;28;20031;-86
2022/07/07 02:13:31;;;;;;;4.35;3.53;;;;;;;18.88;58.60;95139.19;5071973;28;20047;-86
2022/07/07 02:15:56;;;;;;;4.97;3.72;;;;;;;19.04;57.94;95150.16;5058369;28;20503;-86
2022/07/07 02:18:22;;;;;;;5.00;3.88;;;;;;;18.55;57.93;95088.00;5056040;28;20033;-86
2022/07/07 02:20:47;;;;;;;5.50;3.53;;;;;;;19.05;58.01;95149.03;5070514;28;20078;-86
2022/07/07 02:23:12;;;;;;;4.15;3.58;;;;;;;18.76;57.49;95115.75;5061462;28;20515;-86
2022/07/07 02:25:38;;;;;;;7.68;3.40;;;;;;;18.72;57.73;95092.53;5062268;28;20222;-86
2022/07/07 02:28:03;;;;;;;5.38;3.00;;;;;;;19.59;57.54;95236.78;5061993;28;20036;-86
2022/07/07 02:30:29;;;;;;;5.88;3.83;;;;;;;19.51;57.80;95244.91;5059548;28;20040;-86
2022/07/07 02:32:54;;;;;;;5.47;3.00;;;;;;;17.67;57.08;94932.41;5058472;28;20059;-87
2022/07/07 02:35:20;;;;;;;6.05;3.10;;;;;;;17.21;56.89;94866.22;5054075;28;20315;-86
2022/07/07 02:37:45;;;;;;;5.97;3.38;;;;;;;19.25;56.92;95173.22;5062920;28;20044;-86
2022/07/07 02:40:11;;;;;;;3.22;2.90;;;;;;;19.42;56.80;95206.50;5063694;28;20036;-86
2022/07/07 02:42:36;;;;;;;6.22;3.08;;;;;;;19.41;57.13;95219.16;5073845;28;20123;-87
2022/07/07 02:45:02;;;;;;;4.22;3.05;;;;;;;19.15;57.18;95170.94;5097121;28;20123;-86
2022/07/07 02:47:27;;;;;;;3.53;3.10;;;;;;;19.48;57.19;95240.16;5078877;28;20046;-86
2022/07/07 02:49:53;;;;;;;3.90;2.95;;;;;;;18.63;57.03;95108.69;5055809;28;20037;-86
2022/07/07 02:52:18;;;;;;;4.53;3.05;;;;;;;19.61;56.93;95245.28;5065008;28;20051;-86
2022/07/07 02:54:44;;;;;;;4.18;3.10;;;;;;;18.51;57.04;95103.22;5054013;28;20037;-86
2022/07/07 02:57:09;;;;;;;4.07;2.60;;;;;;;17.17;56.99;94900.09;5061951;28;21456;-87
2022/07/07 02:59:36;;;;;;;6.32;2.85;;;;;;;19.34;56.77;95226.94;5079112;28;20132;-86
2022/07/07 03:02:02;;;;;;;7.72;3.30;;;;;;;19.54;57.21;95255.78;5086075;28;20157;-86
2022/07/07 03:04:27;;;;;;;7.13;2.70;;;;;;;19.38;56.89;95230.53;5054131;28;20047;-86
2022/07/07 03:06:53;;;;;;;4.85;3.05;;;;;;;19.46;56.66;95232.38;5065314;28;20043;-86
2022/07/07 03:09:18;;;;;;;5.97;2.92;;;;;;;19.20;56.57;95197.63;5053293;28;20063;-86
2022/07/07 03:11:44;;;;;;;5.63;3.45;;;;;;;18.52;56.94;95116.31;5067694;28;20142;-86
2022/07/07 03:14:09;;;;;;;6.57;3.00;;;;;;;19.25;56.53;95196.66;5074828;28;20036;-87
2022/07/07 03:16:34;;;;;;;7.93;2.75;;;;;;;19.43;56.32;95221.50;5059950;28;20044;-86
2022/07/07 03:19:00;;;;;;;3.00;2.53;;;;;;;19.65;56.52;95278.50;5064500;28;20054;-86
2022/07/07 03:21:25;;;;;;;11.50;3.55;;;;;;;19.59;56.21;95244.84;5070419;28;20036;-87
2022/07/07 03:23:51;;;;;;;5.18;2.95;;;;;;;18.59;56.16;95090.88;5064882;28;20036;-86
2022/07/07 03:26:16;;;;;;;3.92;2.97;;;;;;;18.70;56.37;95132.34;5064502;28;20036;-86
2022/07/07 03:28:41;;;;;;;6.35;3.05;;;;;;;19.13;56.87;95210.03;5046928;28;20532;-87
2022/07/07 03:31:07;;;;;;;4.72;2.67;;;;;;;19.18;56.45;95194.47;5066535;28;20032;-87
2022/07/07 03:33:32;;;;;;;9.40;2.92;;;;;;;19.33;56.47;95229.97;5082195;28;20062;-86
2022/07/07 03:35:58;;;;;;;6.30;3.17;;;;;;;19.44;56.52;95242.72;5064862;28;20086;-86
2022/07/07 03:38:23;;;;;;;4.18;3.28;;;;;;;19.19;56.53;95216.78;5060775;28;20422;-86
2022/07/07 03:40:49;;;;;;;5.80;2.80;;;;;;;18.94;56.95;95191.63;5061622;28;20505;-86
2022/07/07 03:43:14;;;;;;;6.18;3.08;;;;;;;16.71;56.57;94815.19;5077408;28;20730;-86
2022/07/07 03:45:40;;;;;;;3.63;3.00;;;;;;;19.23;55.99;95180.84;5067390;28;20031;-86
2022/07/07 03:48:06;;;;;;;3.33;2.50;;;;;;;19.73;55.64;95268.78;5079579;28;20045;-86
2022/07/07 03:50:31;;;;;;;6.35;2.75;;;;;;;17.53;55.51;94956.75;5078801;28;20027;-86
2022/07/07 03:52:57;;;;;;;5.18;2.60;;;;;;;19.46;56.02;95261.97;5073041;28;20032;-86
2022/07/07 03:55:23;;;;;;;3.40;2.80;;;;;;;18.88;55.90;95201.00;5065633;28;20036;-86
2022/07/07 03:57:48;;;;;;;4.60;2.30;;;;;;;18.07;55.72;95032.09;5074840;28;20124;-86
2022/07/07 04:00:14;;;;;;;3.88;2.55;;;;;;;19.62;55.95;95286.41;5059578;28;20490;-86
2022/07/07 04:02:40;;;;;;;5.57;2.78;;;;;;;18.72;55.93;95140.88;5065613;28;20587;-85
2022/07/07 04:05:05;;;;;;;4.30;2.72;;;;;;;19.59;55.86;95279.81;5082620;28;20035;-86
2022/07/07 04:07:33;;;;;;;5.35;2.50;;;;;;;19.67;55.41;95280.88;5077800;28;20106;-86
2022/07/07 04:10:02;;;;;;;4.07;2.75;;;;;;;19.21;55.27;95196.53;5071421;28;20497;-86
2022/07/07 04:12:28;;;;;;;7.50;2.60;;;;;;;19.11;55.25;95188.84;5060345;28;20037;-86
2022/07/07 04:14:53;;;;;;;3.35;2.47;;;;;;;19.46;55.57;95255.81;5063518;28;20385;-86
2022/07/07 04:17:19;;;;;;;4.03;2.58;;;;;;;19.67;55.58;95288.94;5060778;28;20047;-86
2022/07/07 04:19:44;;;;;;;3.45;2.67;;;;;;;19.69;55.54;95284.00;5072532;28;20027;-86
2022/07/07 04:22:10;;;;;;;9.82;3.05;;;;;;;19.15;55.11;95173.63;5076412;28;20036;-87
2022/07/07 04:24:35;;;;;;;5.35;2.60;;;;;;;18.94;54.81;95164.75;5057482;28;20115;-86
2022/07/07 04:27:01;;;;;;;5.93;2.83;;;;;;;19.45;55.16;95241.59;5052796;28;20034;-86
2022/07/07 04:29:26;;;;;;;7.45;2.85;;;;;;;18.98;55.35;95157.63;5063667;28;20139;-86
2022/07/07 04:31:51;;;;;;;4.57;2.72;;;;;;;19.84;55.48;95290.69;5079395;28;20028;-86
2022/07/07 04:34:17;;;;;;;4.50;2.72;;;;;;;19.68;55.74;95293.19;5063855;28;20445;-86
2022/07/07 04:36:42;;;;;;;4.68;3.08;;;;;;;17.63;56.02;94980.53;5061538;28;20040;-86
2022/07/07 04:39:11;;;;;;;8.43;2.80;;;;;;;18.17;55.76;95071.16;5063111;28;20036;-86
2022/07/07 04:41:36;;;;;;;4.47;3.00;;;;;;;19.13;55.96;95201.97;5063655;28;20093;-86
2022/07/07 04:44:02;;;;;;;6.03;3.15;;;;;;;19.48;56.11;95257.09;5063792;28;20039;-86
2022/07/07 04:46:28;;;;;;;6.93;2.90;;;;;;;19.60;56.13;95304.81;5064097;28;20039;-86
2022/07/07 04:48:53;;;;;;;5.45;2.78;;;;;;;19.05;55.89;95211.66;5070516;28;20032;-86
2022/07/07 04:51:19;;;;;;;6.03;2.78;;;;;;;18.49;56.07;95135.75;5066150;28;20043;-86
2022/07/07 04:53:44;;;;;;;9.13;3.15;;;;;;;19.14;55.97;95207.00;5055978;28;20028;-86
2022/07/07 04:56:10;;;;;;;7.68;2.78;;;;;;;19.33;56.06;95254.16;5075577;28;20042;-86
2022/07/07 04:58:35;;;;;;;2.70;2.42;;;;;;;19.34;56.04;95243.09;5054282;28;20517;-87
2022/07/07 05:01:01;;;;;;;4.95;2.50;;;;;;;19.36;56.02;95240.06;5056862;28;20032;-86
2022/07/07 05:03:26;;;;;;;5.60;3.45;;;;;;;18.99;56.15;95155.72;5053205;28;20028;-86
2022/07/07 05:05:52;;;;;;;6.45;3.10;;;;;;;19.03;55.70;95151.25;5050020;28;20657;-86
2022/07/07 05:08:17;;;;;;;4.97;3.28;;;;;;;20.02;55.93;95295.59;5055496;28;20096;-87
2022/07/07 05:10:43;;;;;;;7.88;3.10;;;;;;;19.96;55.94;95293.44;5058294;28;20036;-86
2022/07/07 05:13:08;;;;;;;5.00;2.60;;;;;;;19.81;55.89;95294.03;5050989;28;20058;-86
2022/07/07 05:15:33;;;;;;;6.38;2.88;;;;;;;19.54;56.16;95225.41;5061289;28;20482;-86
2022/07/07 05:17:59;;;;;;;6.10;3.20;;;;;;;19.78;55.95;95251.63;5054290;28;20209;-87
2022/07/07 05:20:24;;;;;;;13.57;3.50;;;;;;;19.80;56.16;95263.66;5061946;28;20487;-86
2022/07/07 05:22:50;;;;;;;4.95;3.08;;;;;;;19.96;55.66;95280.78;5051321;28;20059;-87
2022/07/07 05:25:15;;;;;;;6.22;3.15;;;;;;;19.51;55.50;95213.41;5057013;28;20044;-87
2022/07/07 05:27:44;;;;;;;10.77;3.38;;;;;;;19.98;56.20;95281.25;5059189;28;20056;-87
2022/07/07 05:30:10;;;;;;;4.40;2.95;;;;;;;19.24;55.59;95168.97;5077774;28;20126;-87
2022/07/07 05:32:36;;;;;;;3.72;2.90;;;;;;;19.31;56.22;95171.13;5058945;28;20024;-86
2022/07/07 05:35:01;;;;;;;4.28;3.30;;;;;;;19.56;55.87;95191.69;5075331;28;20101;-87
2022/07/07 05:37:27;;;;;;;6.65;3.03;;;;;;;19.86;56.31;95256.94;5043359;28;20036;-86
2022/07/07 05:39:52;;;;;;;6.22;3.17;;;;;;;20.10;55.70;95279.69;5055743;28;20419;-86
2022/07/07 05:42:18;;;;;;;4.18;3.03;;;;;;;17.64;55.72;94923.09;5074788;28;20117;-86
2022/07/07 05:44:44;;;;;;;3.95;3.30;;;;;;;19.75;56.09;95255.00;5052444;28;20506;-86
2022/07/07 05:47:09;;;;;;;8.77;3.67;;;;;;;19.90;56.52;95263.25;5054967;28;20040;-87
2022/07/07 05:49:34;;;;;;;6.25;3.05;;;;;;;19.28;55.87;95193.31;5059129;28;20097;-86
2022/07/07 05:52:00;;;;;;;9.48;2.92;;;;;;;18.89;55.90;95116.59;5073239;28;20031;-86
2022/07/07 05:54:26;;;;;;;8.98;3.33;;;;;;;19.14;55.43;95149.78;5055601;28;20043;-86
2022/07/07 05:56:51;;;;;;;8.70;3.05;;;;;;;19.86;55.21;95250.78;5051252;28;20132;-85
2022/07/07 05:59:17;;;;;;;5.57;3.33;;;;;;;19.92;55.01;95276.38;5070185;28;20075;-85
2022/07/07 06:01:42;;;;;;;6.63;3.50;;;;;;;18.10;55.33;94996.53;5061065;28;20480;-86
2022/07/07 06:04:08;;;;;;;5.25;2.80;;;;;;;18.48;55.49;95044.78;5054277;28;20030;-85
2022/07/07 06:06:33;;;;;;;7.80;3.05;;;;;;;19.09;56.02;95142.69;5056387;28;20490;-86
2022/07/07 06:08:59;;;;;;;9.30;3.10;;;;;;;18.99;55.19;95145.78;5070688;28;20020;-86
2022/07/07 06:11:24;;;;;;;7.72;3.20;;;;;;;20.01;55.70;95279.78;5055153;28;20874;-85
2022/07/07 06:13:50;;;;;;;5.53;3.30;;;;;;;19.99;55.92;95250.50;5053659;28;20028;-85
2022/07/07 06:16:15;;;;;;;6.93;3.38;;;;;;;19.63;55.36;95194.63;5074422;28;20044;-85
2022/07/07 06:18:40;;;;;;;7.88;3.90;;;;;;;19.65;55.69;95187.03;5056932;28;20751;-85
2022/07/07 06:21:06;;;;;;;6.80;3.60;;;;;;;20.19;55.27;95275.81;5077759;28;20032;-84
2022/07/07 06:23:31;;;;;;;5.75;2.90;;;;;;;19.99;55.27;95231.66;5071936;28;20047;-85
2022/07/07 06:25:57;;;;;;;9.38;3.30;;;;;;;20.00;55.27;95209.00;5060069;28;20039;-85
2022/07/07 06:28:22;;;;;;;6.15;3.03;;;;;;;19.86;54.82;95184.28;5079486;28;20040;-85
2022/07/07 06:30:48;;;;;;;8.38;3.97;;;;;;;20.61;54.38;95268.41;5064014;28;20031;-86
2022/07/07 06:33:13;;;;;;;4.90;3.15;;;;;;;19.68;54.74;95112.94;5059219;28;20040;-85
2022/07/07 06:35:38;;;;;;;10.57;3.38;;;;;;;20.69;53.75;95269.44;5074596;28;20043;-85
2022/07/07 06:38:04;;;;;;;4.35;3.28;;;;;;;20.02;53.91;95190.63;5058360;28;20031;-85
2022/07/07 06:40:29;;;;;;;7.78;3.33;;;;;;;20.33;53.97;95246.72;5053858;28;20058;-85
2022/07/07 06:42:55;;;;;;;4.97;3.38;;;;;;;20.32;53.95;95247.00;5059535;28;20035;-85
2022/07/07 06:45:21;;;;;;;3.78;3.03;;;;;;;20.51;53.16;95279.66;5057855;28;20070;-85
2022/07/07 06:47:46;;;;;;;8.70;3.50;;;;;;;20.37;53.90;95239.53;5055320;28;20614;-85
2022/07/07 06:50:12;;;;;;;7.60;3.50;;;;;;;20.50;54.25;95271.88;5054315;28;20134;-85
2022/07/07 06:52:37;;;;;;;9.57;3.40;;;;;;;20.75;53.83;95303.16;5061094;28;20091;-85
2022/07/07 06:55:04;;;;;;;5.45;3.33;;;;;;;20.92;53.55;95302.16;5084659;28;20040;-85
2022/07/07 06:57:30;;;;;;;5.35;2.88;;;;;;;20.74;53.22;95283.50;5057233;28;20570;-85
2022/07/07 06:59:55;;;;;;;6.15;3.17;;;;;;;20.79;52.71;95293.28;5059580;28;20039;-84
2022/07/07 07:02:21;;;;;;;13.60;3.05;;;;;;;19.32;51.64;95053.59;5058153;28;20028;-84
2022/07/07 07:04:47;;;;;;;6.38;2.95;;;;;;;20.79;51.34;95269.81;5059958;28;20116;-85
2022/07/07 07:07:12;;;;;;;5.97;3.15;;;;;;;20.68;51.87;95255.19;5057633;28;20040;-85
2022/07/07 07:09:38;;;;;;;8.98;2.67;;;;;;;19.69;51.41;95082.19;5059803;28;20024;-85
2022/07/07 07:12:04;;;;;;;7.28;3.10;;;;;;;21.29;51.83;95313.75;5059771;28;20043;-85
2022/07/07 07:14:29;;;;;;;8.68;3.00;;;;;;;21.01;50.34;95265.88;5070714;28;20701;-85
2022/07/07 07:16:55;;;;;;;4.18;2.22;;;;;;;21.13;50.37;95278.59;5054656;28;20041;-86
2022/07/07 07:19:21;;;;;;;14.73;3.08;;;;;;;20.79;50.17;95212.41;5050305;28;20060;-85
2022/07/07 07:21:46;;;;;;;9.75;2.45;;;;;;;20.80;49.79;95236.34;5052217;28;20173;-85
2022/07/07 07:24:12;;;;;;;5.72;2.28;;;;;;;21.07;49.34;95256.44;5046821;28;21391;-85
2022/07/07 07:26:38;;;;;;;6.78;2.65;;;;;;;21.04;49.09;95227.47;5049016;28;20032;-85
2022/07/07 07:29:03;;;;;;;3.53;2.30;;;;;;;21.10;47.66;95252.28;5045410;28;20130;-85
2022/07/07 07:31:29;;;;;;;6.20;2.45;;;;;;;20.57;47.64;95154.38;5049697;28;20028;-85
2022/07/07 07:33:54;;;;;;;5.05;2.50;;;;;;;21.21;48.84;95242.63;5050751;28;20028;-85
2022/07/07 07:36:20;;;;;;;7.20;2.45;;;;;;;21.26;48.67;95220.84;5050629;28;20136;-86
2022/07/07 07:38:48;;;;;;;2.78;2.40;;;;;;;21.41;48.19;95251.72;5054965;28;20032;-86
2022/07/07 07:41:13;;;;;;;4.65;2.58;;;;;;;20.69;47.24;95121.22;5051828;28;20051;-86
2022/07/07 07:43:39;;;;;;;3.72;2.40;;;;;;;20.34;46.74;95081.31;5058058;28;20024;-86
2022/07/07 07:46:05;;;;;;;17.35;5.38;;;;;;;21.92;46.96;95299.50;5064430;28;20861;-86
2022/07/07 07:48:30;;;;;;;7.57;2.92;;;;;;;20.46;45.71;95075.13;5070032;28;21236;-85
2022/07/07 07:50:56;;;;;;;3.42;2.30;;;;;;;20.22;45.44;95010.47;5055960;28;20043;-85
2022/07/07 07:53:21;;;;;;;7.97;3.08;;;;;;;20.58;45.77;95074.34;5077234;28;20087;-85
2022/07/07 07:55:47;;;;;;;5.78;2.53;;;;;;;21.64;45.91;95216.91;5071088;28;20039;-85
2022/07/07 07:58:12;;;;;;;6.10;2.83;;;;;;;21.96;46.58;95269.91;5059242;28;20051;-86
2022/07/07 08:00:38;;;;;;;3.05;2.47;;;;;;;22.01;46.79;95285.88;5055206;28;20547;-86
2022/07/07 08:03:04;;;;;;;5.43;2.33;;;;;;;21.90;46.58;95249.66;5056244;28;20078;-87
2022/07/07 08:05:30;;;;;;;11.75;2.60;;;;;;;21.37;47.07;95164.50;5061645;28;20135;-86
2022/07/07 08:08:01;;;;;;;12.85;3.10;;;;;;;20.84;47.12;95071.25;5057415;28;20028;-86
2022/07/07 08:10:27;;;;;;;6.28;2.60;;;;;;;19.37;46.74;94833.72;5058944;28;20039;-85
2022/07/07 08:12:55;;;;;;;8.88;2.80;;;;;;;20.39;46.60;94988.72;5075602;28;20624;-85
2022/07/07 08:15:20;;;;;;;7.45;2.53;;;;;;;18.42;45.61;94667.53;5060113;28;20509;-85
2022/07/07 08:17:48;;;;;;;5.05;2.67;;;;;;;19.02;45.89;94758.09;5054941;28;20038;-86
2022/07/07 08:20:15;;;;;;;4.85;2.50;;;;;;;20.58;45.83;94969.25;5075401;28;20036;-85
2022/07/07 08:22:40;;;;;;;6.18;2.80;;;;;;;21.20;45.35;95073.09;5059430;28;20028;-84
2022/07/07 08:25:06;;;;;;;4.65;2.55;;;;;;;22.32;45.47;95269.78;5055972;28;20118;-85
2022/07/07 08:27:32;;;;;;;7.28;2.33;;;;;;;20.83;45.26;95037.34;5054171;28;20133;-85
2022/07/07 08:29:58;;;;;;;7.07;2.30;;;;;;;22.43;45.17;95278.16;5048099;28;20028;-84
2022/07/07 08:32:24;;;;;;;6.47;2.17;;;;;;;22.05;46.14;95186.84;5058830;28;20480;-84
2022/07/07 08:34:49;;;;;;;6.47;2.67;;;;;;;22.53;45.32;95280.34;5058670;28;20028;-85
2022/07/07 08:37:15;;;;;;;6.30;2.28;;;;;;;22.33;44.63;95230.03;5057026;28;20040;-84
2022/07/07 08:39:40;;;;;;;2.38;2.17;;;;;;;22.69;44.79;95280.38;5072497;28;20093;-85
2022/07/07 08:42:06;;;;;;;4.00;2.47;;;;;;;22.74;45.33;95265.84;5076275;28;20909;-84
2022/07/07 08:44:33;;;;;;;5.60;2.50;;;;;;;23.01;45.88;95300.91;5056302;28;20024;-85
2022/07/07 08:46:59;;;;;;;5.55;3.10;;;;;;;23.05;45.42;95301.00;5053499;28;20043;-84
2022/07/07 08:49:27;;;;;;;7.88;2.47;;;;;;;22.56;45.65;95224.84;5057982;28;20016;-86
2022/07/07 08:51:54;;;;;;;6.30;2.30;;;;;;;22.73;44.94;95245.34;5052536;28;20493;-86
2022/07/07 08:54:20;;;;;;;6.18;2.47;;;;;;;22.63;44.56;95212.28;5054880;28;20547;-86
2022/07/07 08:56:45;;;;;;;4.93;2.30;;;;;;;23.17;43.92;95286.59;5077445;28;20031;-84
2022/07/07 08:59:13;;;;;;;4.53;2.13;;;;;;;22.92;44.52;95215.69;5045699;28;20044;-85
2022/07/07 09:01:39;;;;;;;8.98;2.38;;;;;;;23.12;45.24;95233.53;5053272;28;20055;-86
2022/07/07 09:04:06;;;;;;;6.75;2.53;;;;;;;23.05;44.89;95242.28;5051859;28;20622;-87
2022/07/07 09:06:32;;;;;;;4.00;2.50;;;;;;;22.83;44.40;95188.81;5037291;28;20024;-86
2022/07/07 09:08:59;;;;;;;2.88;1.90;;;;;;;23.08;44.15;95224.56;5054818;28;20028;-86
2022/07/07 09:11:29;;;;;;;4.53;2.38;;;;;;;22.79;44.69;95157.44;5063752;28;20040;-86
2022/07/07 09:14:10;;;;;;;3.05;2.28;;;;;;;23.58;44.13;95269.78;5056295;28;20315;-86
2022/07/07 09:16:36;;;;;;;4.32;2.67;;;;;;;22.99;45.48;95172.56;5056396;28;20036;-86
2022/07/07 09:19:05;;;;;;;5.35;2.55;;;;;;;22.45;43.70;95065.13;5056519;28;20032;-87
2022/07/07 09:21:32;;;;;;;13.38;2.70;;;;;;;23.60;44.10;95286.47;5054869;28;20032;-86
2022/07/07 09:24:00;;;;;;;4.68;2.40;;;;;;;23.34;44.96;95213.97;5069928;28;20063;-86
2022/07/07 09:26:39;;;;;;;6.70;2.78;;;;;;;23.14;44.28;95182.59;5057315;28;20501;-86
2022/07/07 09:29:06;;;;;;;3.95;2.47;;;;;;;23.91;43.97;95296.41;5050372;28;20031;-86
2022/07/07 09:31:51;;;;;;;6.63;3.35;;;;;;;24.13;44.56;95295.72;5056962;28;20485;-86
2022/07/07 09:34:18;;;;;;;4.68;2.70;;;;;;;23.89;44.00;95262.69;5059043;28;20048;-86
2022/07/07 09:39:40;;;;;;;3.55;2.10;;;;;;;24.16;43.63;95286.88;5068802;28;20046;-86
2022/07/07 09:42:23;;;;;;;6.32;2.58;;;;;;;24.26;43.48;95244.13;5052224;28;20885;-86
2022/07/07 09:44:52;;;;;;;7.88;2.20;;;;;;;24.48;43.84;95284.81;5052029;28;20031;-86
2022/07/07 09:47:19;;;;;;;4.25;2.33;;;;;;;23.96;43.10;95178.88;5058797;28;20097;-86
2022/07/07 09:49:58;;;;;;;5.57;2.58;;;;;;;25.34;42.20;95285.13;5075798;28;20131;-86
2022/07/07 09:52:23;;;;;;;3.15;2.33;;;;;;;25.57;40.42;95200.88;5070869;28;20032;-86
2022/07/07 09:54:49;;;;;;;2.30;1.88;;;;;;;26.21;39.37;95245.16;5056198;28;20031;-86
2022/07/07 09:57:18;;;;;;;7.30;2.13;;;;;;;26.23;39.31;95286.38;5054999;28;20032;-86
2022/07/07 09:59:45;;;;;;;9.50;2.50;;;;;;;26.26;38.61;95200.56;5051747;28;20063;-86
2022/07/07 10:02:24;;;;;;;6.18;2.05;;;;;;;26.60;38.51;95269.31;5050089;28;20044;-86
2022/07/07 10:04:52;;;;;;;2.65;1.98;;;;;;;25.82;39.39;95209.38;5054679;28;20109;-86
2022/07/07 10:07:20;;;;;;;2.97;2.15;;;;;;;24.83;39.73;95148.25;5054521;28;20040;-86
2022/07/07 10:09:50;;;;;;;7.97;2.80;;;;;;;25.10;39.85;95170.78;5068021;28;20032;-86
2022/07/07 10:12:19;;;;;;;3.85;2.42;;;;;;;25.92;39.33;95243.28;5075036;28;20036;-86
2022/07/07 10:14:44;;;;;;;4.13;2.00;;;;;;;26.33;37.52;95182.41;5061348;28;20036;-86
2022/07/07 10:17:12;;;;;;;2.80;1.80;;;;;;;27.80;36.26;95266.78;5058273;28;20125;-87
2022/07/07 10:19:38;;;;;;;2.90;2.00;;;;;;;27.82;36.00;95235.28;5056063;28;20452;-86
2022/07/07 10:22:04;;;;;;;2.60;1.80;;;;;;;28.42;35.55;95257.34;5056469;28;20045;-86
2022/07/07 10:24:32;;;;;;;6.40;2.20;;;;;;;29.00;35.15;95256.28;5059554;28;20113;-87
2022/07/07 10:26:59;;;;;;;3.88;1.90;;;;;;;28.97;33.72;95245.38;5073960;28;20572;-86
2022/07/07 10:29:40;;;;;;;3.45;2.05;;;;;;;29.70;33.16;95251.94;5064311;28;20063;-86
2022/07/07 10:32:11;;;;;;;5.40;2.20;;;;;;;30.01;32.84;95252.28;5069355;28;20175;-86
2022/07/07 10:34:38;;;;;;;;;;;;;;;30.53;31.67;95242.28;5061675;28;20036;-87
2022/07/07 10:37:05;;;;;;;2.78;2.10;;;;;;;30.37;31.31;95196.22;5060352;28;19925;-86
2022/07/07 10:39:37;;;;;;;4.78;2.17;;;;;;;29.88;32.47;95257.38;5060831;28;20404;-86
2022/07/07 10:42:15;;;;;;;7.60;2.15;;;;;;;30.10;32.60;95233.50;5057394;28;20034;-85
2022/07/07 10:44:43;;;;;;;2.65;1.92;;;;;;;28.82;33.67;95216.50;5060140;28;20028;-86
2022/07/07 10:47:12;;;;;;;7.18;2.25;;;;;;;28.95;33.65;95247.69;5059213;28;20473;-86
2022/07/07 10:49:41;;;;;;;6.68;1.90;;;;;;;29.09;33.48;95245.75;5069666;28;20035;-87
2022/07/07 10:52:15;;;;;;;4.53;2.00;;;;;;;28.28;34.74;95240.16;5080057;28;20118;-86
2022/07/07 10:55:02;;;;;;;6.10;1.83;;;;;;;28.26;34.89;95187.94;5053647;28;20039;-86
2022/07/07 10:57:39;;;;;;;3.95;2.10;;;;;;;28.88;34.20;95232.09;5056803;28;20155;-86
2022/07/07 11:00:13;;;;;;;3.53;2.00;;;;;;;29.44;33.50;95230.53;5039528;28;20037;-85
2022/07/07 11:02:47;;;;;;;2.10;1.85;;;;;;;28.81;33.79;95166.59;5045028;28;20788;-86
2022/07/07 11:05:15;;;;;;;3.65;2.00;;;;;;;28.52;34.54;95242.16;5046170;28;20033;-86
2022/07/07 11:07:56;;;;;;;10.48;2.30;;;;;;;28.47;35.12;95236.28;5042371;28;20064;-85
2022/07/07 11:10:23;;;;;;;4.00;2.10;;;;;;;27.42;35.36;95151.75;5045737;28;20040;-86
2022/07/07 11:12:54;;;;;;;4.60;2.00;;;;;;;28.02;35.89;95239.25;5045335;28;20037;-85
2022/07/07 11:15:22;;;;;;;5.35;1.83;;;;;;;28.39;33.77;95225.38;5047931;28;20190;-86
2022/07/07 11:17:51;;;;;;;4.70;2.08;;;;;;;27.40;34.26;95139.69;5044244;28;20079;-85
2022/07/07 11:20:19;;;;;;;1.75;1.58;;;;;;;27.24;33.26;95006.59;5044285;28;20033;-86
2022/07/07 11:22:47;;;;;;;6.25;1.88;;;;;;;29.04;33.62;95210.66;5040423;28;20033;-85
2022/07/07 11:25:17;;;;;;;4.97;2.25;;;;;;;29.33;33.51;95131.41;5039634;28;20355;-85
2022/07/07 11:27:43;;;;;;;5.28;2.38;;;;;;;30.20;31.51;95167.81;5039753;28;20039;-86
2022/07/07 11:30:08;;;;;;;3.03;1.88;;;;;;;30.52;31.37;95196.94;5043102;28;20025;-86
2022/07/07 11:32:39;;;;;;;2.15;1.95;;;;;;;29.15;32.89;95177.88;5034819;28;20044;-86
2022/07/07 11:35:08;;;;;;;6.23;1.73;;;;;;;29.00;33.54;95201.66;5045086;28;20041;-86
2022/07/07 11:37:37;;;;;;;2.28;1.85;;;;;;;28.39;33.97;95140.03;5039481;28;20125;-85